createdAt,value
2023-05-01T00:00:14.527Z,13.70
2023-05-01T00:01:14.502Z,16.30
2023-05-01T00:02:14.540Z,15.20
2023-05-01T00:03:14.724Z,17.90
2023-05-01T00:04:14.639Z,18.00
2023-05-01T00:05:14.440Z,17.10
2023-05-01T00:06:14.516Z,16.70
2023-05-01T00:07:14.450Z,17.10
2023-05-01T00:08:14.419Z,15.10
2023-05-01T00:09:14.381Z,15.50
2023-05-01T00:10:14.383Z,17.40
2023-05-01T00:11:14.384Z,13.40
2023-05-01T00:12:14.345Z,14.70
2023-05-01T00:13:14.350Z,15.80
2023-05-01T00:14:14.324Z,13.30
2023-05-01T00:15:14.327Z,14.60
2023-05-01T00:16:14.310Z,13.30
2023-05-01T00:17:14.307Z,15.00
2023-05-01T00:18:14.322Z,17.10
2023-05-01T00:19:14.483Z,15.30
2023-05-01T00:20:14.348Z,17.50
2023-05-01T00:21:14.231Z,21.40
2023-05-01T00:22:14.216Z,21.40
2023-05-01T00:23:14.229Z,24.80
2023-05-01T00:24:14.181Z,23.30
2023-05-01T00:25:14.210Z,24.00
2023-05-01T00:26:14.183Z,24.70
2023-05-01T00:27:14.152Z,25.10
2023-05-01T00:28:14.148Z,21.40
2023-05-01T00:29:14.145Z,19.70
2023-05-01T00:30:14.160Z,21.10
2023-05-01T00:31:14.108Z,19.40
2023-05-01T00:32:14.162Z,17.00
2023-05-01T00:33:14.087Z,17.70
2023-05-01T00:34:14.057Z,19.40
2023-05-01T00:35:14.050Z,19.30
2023-05-01T00:36:14.055Z,19.20
2023-05-01T00:37:14.044Z,20.10
2023-05-01T00:38:14.009Z,18.30
2023-05-01T00:39:14.012Z,18.50
2023-05-01T00:40:13.974Z,20.50
2023-05-01T00:41:14.016Z,23.10
2023-05-01T00:42:13.980Z,21.30
2023-05-01T00:43:13.953Z,22.50
2023-05-01T00:44:13.930Z,25.90
2023-05-01T00:45:13.931Z,25.60
2023-05-01T00:46:14.025Z,23.10
2023-05-01T00:47:13.957Z,22.80
2023-05-01T00:48:14.017Z,22.10
2023-05-01T00:49:13.876Z,23.00
2023-05-01T00:50:13.852Z,24.00
2023-05-01T00:51:13.852Z,26.40
2023-05-01T00:52:13.851Z,28.00
2023-05-01T00:53:13.814Z,28.90
2023-05-01T00:54:13.793Z,26.80
2023-05-01T00:55:13.817Z,26.20
2023-05-01T00:56:13.786Z,24.40
2023-05-01T00:57:13.785Z,24.90
2023-05-01T00:58:13.752Z,24.10
2023-05-01T00:59:13.745Z,26.20
2023-05-01T01:00:13.721Z,25.10
2023-05-01T01:02:29.783Z,23.80
2023-05-01T01:03:30.728Z,23.10
2023-05-01T01:04:30.062Z,23.50
2023-05-01T01:05:29.948Z,27.60
2023-05-01T01:06:29.954Z,24.30
2023-05-01T01:07:29.960Z,20.60
2023-05-01T01:08:32.051Z,22.70
2023-05-01T01:09:29.897Z,20.40
2023-05-01T01:10:29.894Z,18.70
2023-05-01T01:11:29.855Z,19.40
2023-05-01T01:12:29.880Z,18.20
2023-05-01T01:13:29.874Z,20.30
2023-05-01T01:14:29.820Z,18.90
2023-05-01T01:15:29.826Z,16.50
2023-05-01T01:16:29.832Z,18.40
2023-05-01T01:17:29.837Z,17.20
2023-05-01T01:18:29.788Z,17.60
2023-05-01T01:19:29.785Z,18.00
2023-05-01T01:20:29.768Z,16.90
2023-05-01T01:21:29.712Z,16.20
2023-05-01T01:22:29.768Z,17.90
2023-05-01T01:23:29.701Z,16.80
2023-05-01T01:24:29.689Z,16.30
2023-05-01T01:25:29.814Z,17.80
2023-05-01T01:26:29.680Z,19.50
2023-05-01T01:27:29.645Z,16.60
2023-05-01T01:28:29.680Z,18.60
2023-05-01T01:29:29.653Z,18.30
2023-05-01T01:30:29.625Z,19.10
2023-05-01T01:31:29.632Z,19.60
2023-05-01T01:32:29.596Z,19.50
2023-05-01T01:33:29.591Z,18.50
2023-05-01T01:34:29.557Z,18.00
2023-05-01T01:35:29.548Z,19.40
2023-05-01T01:36:29.539Z,19.30
2023-05-01T01:37:29.528Z,18.90
2023-05-01T01:38:29.490Z,19.50
2023-05-01T01:39:29.500Z,19.10
2023-05-01T01:40:29.482Z,16.70
2023-05-01T01:41:29.457Z,19.20
2023-05-01T01:42:29.434Z,16.70
2023-05-01T01:43:29.442Z,16.80
2023-05-01T01:44:29.433Z,17.20
2023-05-01T01:45:29.411Z,17.50
2023-05-01T01:46:29.481Z,18.50
2023-05-01T01:47:29.414Z,17.90
2023-05-01T01:48:29.384Z,17.40
2023-05-01T01:49:29.364Z,14.40
2023-05-01T01:50:29.363Z,17.90
2023-05-01T01:51:29.361Z,18.40
2023-05-01T01:52:29.308Z,17.60
2023-05-01T01:53:29.322Z,19.40
2023-05-01T01:54:29.306Z,19.10
2023-05-01T01:55:29.301Z,17.40
2023-05-01T01:56:29.267Z,20.90
2023-05-01T01:57:29.239Z,20.80
2023-05-01T01:58:29.243Z,21.10
2023-05-01T01:59:29.220Z,21.20
2023-05-01T02:00:29.236Z,21.40
2023-05-01T02:01:29.250Z,20.90
2023-05-01T02:02:29.454Z,21.70
2023-05-01T02:03:29.250Z,21.60
2023-05-01T02:04:29.152Z,20.60
2023-05-01T02:05:29.241Z,20.30
2023-05-01T02:06:29.201Z,19.70
2023-05-01T02:07:29.098Z,20.50
2023-05-01T02:08:29.136Z,19.10
2023-05-01T02:09:29.068Z,18.30
2023-05-01T02:10:29.058Z,19.20
2023-05-01T02:11:29.125Z,20.30
2023-05-01T02:12:29.056Z,19.60
2023-05-01T02:13:29.035Z,17.30
2023-05-01T02:14:29.078Z,16.70
2023-05-01T02:15:29.010Z,18.30
2023-05-01T02:16:29.004Z,18.10
2023-05-01T02:17:29.097Z,20.60
2023-05-01T02:18:29.002Z,18.10
2023-05-01T02:19:28.951Z,20.50
2023-05-01T02:20:28.992Z,19.70
2023-05-01T02:21:28.944Z,18.20
2023-05-01T02:22:28.925Z,20.00
2023-05-01T02:23:28.926Z,18.00
2023-05-01T02:24:28.897Z,19.90
2023-05-01T02:25:29.697Z,21.00
2023-05-01T02:26:28.859Z,20.50
2023-05-01T02:27:28.834Z,20.20
2023-05-01T02:28:28.843Z,20.40
2023-05-01T02:29:28.838Z,18.10
2023-05-01T02:30:28.831Z,17.90
2023-05-01T02:31:28.843Z,17.80
2023-05-01T02:32:28.861Z,17.90
2023-05-01T02:33:28.780Z,14.80
2023-05-01T02:34:28.786Z,15.60
2023-05-01T02:35:28.729Z,16.40
2023-05-01T02:36:28.737Z,17.50
2023-05-01T02:37:28.719Z,16.00
2023-05-01T02:38:28.720Z,14.50
2023-05-01T02:39:28.714Z,15.60
2023-05-01T02:40:28.703Z,15.60
2023-05-01T02:41:28.657Z,14.50
2023-05-01T02:42:28.667Z,14.30
2023-05-01T02:43:28.640Z,16.10
2023-05-01T02:44:28.668Z,16.60
2023-05-01T02:45:28.634Z,15.20
2023-05-01T02:46:28.846Z,16.80
2023-05-01T02:47:28.683Z,16.80
2023-05-01T02:48:28.560Z,15.30
2023-05-01T02:49:28.566Z,18.20
2023-05-01T02:50:28.765Z,16.30
2023-05-01T02:51:28.509Z,17.50
2023-05-01T02:52:28.520Z,17.90
2023-05-01T02:53:28.557Z,16.80
2023-05-01T02:54:28.484Z,20.30
2023-05-01T02:55:28.487Z,19.10
2023-05-01T02:56:28.479Z,21.30
2023-05-01T02:57:28.481Z,20.90
2023-05-01T02:58:28.439Z,22.60
2023-05-01T02:59:28.420Z,20.70
2023-05-01T03:00:28.508Z,19.60
2023-05-01T03:01:28.437Z,20.90
2023-05-01T03:02:28.365Z,18.50
2023-05-01T03:03:28.403Z,19.60
2023-05-01T03:04:28.423Z,20.60
2023-05-01T03:05:28.368Z,18.90
2023-05-01T03:06:28.343Z,18.10
2023-05-01T03:07:28.340Z,18.30
2023-05-01T03:08:28.299Z,18.50
2023-05-01T03:09:28.274Z,16.90
2023-05-01T03:10:28.254Z,18.00
2023-05-01T03:11:28.303Z,21.00
2023-05-01T03:12:28.233Z,17.60
2023-05-01T03:13:28.245Z,19.40
2023-05-01T03:14:28.250Z,18.90
2023-05-01T03:15:28.299Z,22.20
2023-05-01T03:16:28.328Z,22.90
2023-05-01T03:17:28.234Z,22.30
2023-05-01T03:18:28.217Z,24.80
2023-05-01T03:19:28.201Z,22.80
2023-05-01T03:20:28.149Z,21.80
2023-05-01T03:21:28.152Z,23.20
2023-05-01T03:22:28.132Z,23.30
2023-05-01T03:23:28.086Z,24.40
2023-05-01T03:24:28.080Z,25.10
2023-05-01T03:25:28.077Z,24.00
2023-05-01T03:26:28.055Z,24.30
2023-05-01T03:27:28.059Z,20.50
2023-05-01T03:28:28.026Z,22.60
2023-05-01T03:29:28.067Z,20.50
2023-05-01T03:30:27.992Z,18.90
2023-05-01T03:31:27.997Z,20.60
2023-05-01T03:32:28.037Z,19.50
2023-05-01T03:33:27.949Z,20.30
2023-05-01T03:34:27.971Z,22.00
2023-05-01T03:35:28.053Z,19.50
2023-05-01T03:36:27.954Z,20.40
2023-05-01T03:37:27.913Z,19.80
2023-05-01T03:38:27.894Z,19.50
2023-05-01T03:39:27.878Z,19.80
2023-05-01T03:40:27.854Z,21.50
2023-05-01T03:41:27.874Z,21.00
2023-05-01T03:42:27.846Z,23.10
2023-05-01T03:43:27.805Z,21.10
2023-05-01T03:44:27.815Z,20.40
2023-05-01T03:45:27.794Z,21.00
2023-05-01T03:46:27.836Z,19.80
2023-05-01T03:47:27.870Z,21.20
2023-05-01T03:48:27.769Z,21.60
2023-05-01T03:49:27.747Z,24.40
2023-05-01T03:50:27.720Z,30.10
2023-05-01T03:51:27.710Z,33.10
2023-05-01T03:52:27.763Z,28.30
2023-05-01T03:53:27.680Z,28.30
2023-05-01T03:54:27.696Z,25.50
2023-05-01T03:55:27.687Z,24.80
2023-05-01T03:56:27.660Z,23.60
2023-05-01T03:57:27.730Z,20.90
2023-05-01T03:58:27.681Z,21.20
2023-05-01T03:59:27.624Z,18.80
2023-05-01T04:00:27.584Z,20.00
2023-05-01T04:01:27.622Z,20.50
2023-05-01T04:02:27.728Z,18.10
2023-05-01T04:03:27.604Z,21.20
2023-05-01T04:04:27.622Z,18.50
2023-05-01T04:05:27.521Z,20.50
2023-05-01T04:06:27.575Z,18.40
2023-05-01T04:07:27.533Z,18.60
2023-05-01T04:08:27.483Z,19.00
2023-05-01T04:09:27.477Z,17.60
2023-05-01T04:10:27.514Z,16.90
2023-05-01T04:11:27.455Z,15.20
2023-05-01T04:12:27.430Z,16.60
2023-05-01T04:13:27.542Z,15.80
2023-05-01T04:14:27.403Z,18.10
2023-05-01T04:15:27.418Z,21.30
2023-05-01T04:16:27.442Z,22.00
2023-05-01T04:17:27.369Z,19.00
2023-05-01T04:18:27.368Z,19.60
2023-05-01T04:19:27.371Z,22.30
2023-05-01T04:20:27.355Z,19.50
2023-05-01T04:21:27.338Z,20.00
2023-05-01T04:22:27.356Z,26.00
2023-05-01T04:23:27.330Z,41.40
2023-05-01T04:24:27.263Z,23.00
2023-05-01T04:25:27.264Z,30.40
2023-05-01T04:26:27.251Z,36.20
2023-05-01T04:27:27.230Z,35.60
2023-05-01T04:28:27.248Z,46.90
2023-05-01T04:29:27.197Z,48.40
2023-05-01T04:30:27.212Z,37.00
2023-05-01T04:31:27.225Z,36.10
2023-05-01T04:32:27.351Z,30.60
2023-05-01T04:33:27.168Z,30.10
2023-05-01T04:34:27.175Z,30.60
2023-05-01T04:35:27.131Z,29.60
2023-05-01T04:36:27.106Z,25.60
2023-05-01T04:37:27.120Z,27.70
2023-05-01T04:38:27.120Z,24.10
2023-05-01T04:39:27.092Z,22.40
2023-05-01T04:40:27.092Z,23.90
2023-05-01T04:41:27.069Z,22.30
2023-05-01T04:42:27.030Z,20.90
2023-05-01T04:43:27.061Z,23.10
2023-05-01T04:44:27.019Z,22.30
2023-05-01T04:45:27.080Z,19.00
2023-05-01T04:46:27.010Z,20.70
2023-05-01T04:47:26.987Z,20.00
2023-05-01T04:48:26.991Z,19.90
2023-05-01T04:49:26.942Z,19.50
2023-05-01T04:50:26.935Z,22.80
2023-05-01T04:51:26.905Z,20.20
2023-05-01T04:52:26.890Z,18.00
2023-05-01T04:53:26.906Z,17.10
2023-05-01T04:54:26.859Z,16.30
2023-05-01T04:55:28.112Z,17.80
2023-05-01T04:56:26.872Z,18.20
2023-05-01T04:57:26.877Z,15.60
2023-05-01T04:58:26.793Z,17.60
2023-05-01T04:59:26.809Z,17.70
2023-05-01T05:00:26.816Z,15.60
2023-05-01T05:01:26.796Z,17.30
2023-05-01T05:02:26.844Z,18.80
2023-05-01T05:03:26.852Z,18.00
2023-05-01T05:04:26.758Z,15.90
2023-05-01T05:05:26.764Z,18.80
2023-05-01T05:06:26.745Z,19.40
2023-05-01T05:07:26.748Z,18.20
2023-05-01T05:08:26.704Z,17.60
2023-05-01T05:09:26.699Z,19.40
2023-05-01T05:10:26.739Z,18.80
2023-05-01T05:11:26.633Z,17.70
2023-05-01T05:12:26.640Z,20.90
2023-05-01T05:13:26.626Z,19.80
2023-05-01T05:14:26.590Z,19.10
2023-05-01T05:15:26.644Z,17.70
2023-05-01T05:16:26.642Z,17.20
2023-05-01T05:17:26.549Z,19.10
2023-05-01T05:18:26.556Z,21.60
2023-05-01T05:19:26.578Z,20.90
2023-05-01T05:20:31.651Z,20.50
2023-05-01T05:21:26.503Z,17.20
2023-05-01T05:22:26.525Z,18.90
2023-05-01T05:23:26.480Z,18.20
2023-05-01T05:24:26.466Z,18.30
2023-05-01T05:25:26.457Z,17.60
2023-05-01T05:26:26.456Z,15.00
2023-05-01T05:27:26.420Z,15.70
2023-05-01T05:28:26.427Z,17.20
2023-05-01T05:29:26.399Z,15.40
2023-05-01T05:30:26.378Z,16.70
2023-05-01T05:31:26.418Z,15.30
2023-05-01T05:32:26.513Z,17.90
2023-05-01T05:33:26.329Z,16.90
2023-05-01T05:34:26.321Z,15.60
2023-05-01T05:35:26.313Z,14.30
2023-05-01T05:36:26.314Z,15.30
2023-05-01T05:37:26.283Z,15.00
2023-05-01T05:38:26.266Z,13.30
2023-05-01T05:39:26.278Z,14.50
2023-05-01T05:40:26.279Z,13.50
2023-05-01T05:41:26.244Z,13.00
2023-05-01T05:42:26.242Z,13.90
2023-05-01T05:43:27.968Z,13.30
2023-05-01T05:44:26.330Z,13.40
2023-05-01T05:45:26.185Z,12.40
2023-05-01T05:46:26.172Z,12.50
2023-05-01T05:47:26.175Z,12.50
2023-05-01T05:48:26.275Z,13.30
2023-05-01T05:49:26.147Z,14.00
2023-05-01T05:50:26.112Z,14.10
2023-05-01T05:51:26.138Z,14.20
2023-05-01T05:52:26.110Z,15.30
2023-05-01T05:53:26.422Z,13.10
2023-05-01T05:54:26.058Z,12.20
2023-05-01T05:55:26.088Z,15.10
2023-05-01T05:56:26.027Z,13.30
2023-05-01T05:57:26.055Z,12.80
2023-05-01T05:58:26.005Z,12.40
2023-05-01T05:59:25.985Z,14.10
2023-05-01T06:00:25.985Z,11.90
2023-05-01T06:01:26.004Z,12.50
2023-05-01T06:02:26.049Z,11.70
2023-05-01T06:03:26.106Z,11.30
2023-05-01T06:04:25.957Z,12.20
2023-05-01T06:05:26.017Z,11.70
2023-05-01T06:06:25.979Z,10.90
2023-05-01T06:07:25.872Z,11.10
2023-05-01T06:08:26.003Z,11.30
2023-05-01T06:09:25.855Z,11.30
2023-05-01T06:10:25.867Z,11.00
2023-05-01T06:11:25.827Z,12.10
2023-05-01T06:12:25.820Z,12.80
2023-05-01T06:13:25.847Z,57.90
2023-05-01T06:14:25.784Z,89.50
2023-05-01T06:15:25.796Z,63.70
2023-05-01T06:16:25.852Z,44.40
2023-05-01T06:17:25.749Z,18.80
2023-05-01T06:18:25.764Z,25.40
2023-05-01T06:19:25.721Z,17.30
2023-05-01T06:20:25.698Z,15.80
2023-05-01T06:21:25.704Z,14.10
2023-05-01T06:22:25.681Z,14.70
2023-05-01T06:23:25.674Z,15.30
2023-05-01T06:24:25.652Z,12.40
2023-05-01T06:25:25.631Z,15.60
2023-05-01T06:26:25.654Z,15.40
2023-05-01T06:27:25.613Z,13.60
2023-05-01T06:28:25.647Z,11.80
2023-05-01T06:29:25.621Z,12.60
2023-05-01T06:30:25.586Z,11.80
2023-05-01T06:31:25.633Z,11.30
2023-05-01T06:32:25.595Z,12.30
2023-05-01T06:33:25.535Z,12.80
2023-05-01T06:34:25.535Z,13.10
2023-05-01T06:35:25.532Z,14.00
2023-05-01T06:36:25.520Z,13.00
2023-05-01T06:37:25.478Z,13.70
2023-05-01T06:38:27.028Z,13.70
2023-05-01T06:39:25.482Z,11.70
2023-05-01T06:40:25.446Z,12.40
2023-05-01T06:41:25.414Z,12.80
2023-05-01T06:42:25.399Z,12.70
2023-05-01T06:43:25.394Z,12.40
2023-05-01T06:44:25.396Z,12.60
2023-05-01T06:45:25.427Z,14.40
2023-05-01T06:46:25.377Z,15.00
2023-05-01T06:47:25.504Z,12.80
2023-05-01T06:48:25.314Z,14.70
2023-05-01T06:49:25.337Z,13.60
2023-05-01T06:50:25.292Z,12.60
2023-05-01T06:51:25.270Z,10.80
2023-05-01T06:52:25.258Z,11.50
2023-05-01T06:53:25.253Z,13.70
2023-05-01T06:54:25.264Z,12.40
2023-05-01T06:55:25.220Z,11.70
2023-05-01T06:56:25.209Z,17.70
2023-05-01T06:57:25.207Z,15.50
2023-05-01T06:58:25.170Z,12.70
2023-05-01T06:59:25.221Z,15.30
2023-05-01T07:00:25.160Z,12.10
2023-05-01T07:01:25.188Z,10.40
2023-05-01T07:02:25.188Z,10.70
2023-05-01T07:03:25.202Z,11.50
2023-05-01T07:04:25.103Z,10.50
2023-05-01T07:05:25.116Z,10.50
2023-05-01T07:06:25.118Z,10.30
2023-05-01T07:07:25.070Z,11.50
2023-05-01T07:08:25.054Z,11.90
2023-05-01T07:09:25.037Z,11.50
2023-05-01T07:10:25.054Z,10.00
2023-05-01T07:11:25.005Z,9.50
2023-05-01T07:12:24.980Z,9.00
2023-05-01T07:13:25.008Z,9.40
2023-05-01T07:14:24.972Z,9.50
2023-05-01T07:15:24.966Z,9.20
2023-05-01T07:16:25.035Z,9.20
2023-05-01T07:17:24.983Z,9.00
2023-05-01T07:18:24.903Z,8.90
2023-05-01T07:19:24.940Z,9.40
2023-05-01T07:20:24.909Z,9.20
2023-05-01T07:21:24.890Z,8.50
2023-05-01T07:22:24.898Z,9.00
2023-05-01T07:23:24.858Z,10.50
2023-05-01T07:24:25.006Z,10.60
2023-05-01T07:25:24.834Z,11.50
2023-05-01T07:26:24.822Z,9.50
2023-05-01T07:27:24.790Z,13.30
2023-05-01T07:28:24.780Z,8.20
2023-05-01T07:29:24.755Z,34.70
2023-05-01T07:30:24.784Z,13.10
2023-05-01T07:31:24.799Z,8.40
2023-05-01T07:32:24.751Z,8.20
2023-05-01T07:33:24.772Z,10.70
2023-05-01T07:34:24.684Z,9.70
2023-05-01T07:35:24.692Z,8.70
2023-05-01T07:36:24.671Z,8.00
2023-05-01T07:37:24.644Z,8.00
2023-05-01T07:38:24.667Z,13.80
2023-05-01T07:39:24.610Z,17.90
2023-05-01T07:40:24.623Z,8.70
2023-05-01T07:41:24.626Z,8.70
2023-05-01T07:42:24.577Z,7.40
2023-05-01T07:43:24.579Z,8.00
2023-05-01T07:44:24.547Z,7.60
2023-05-01T07:45:24.570Z,9.10
2023-05-01T07:46:24.585Z,7.50
2023-05-01T07:47:24.625Z,10.90
2023-05-01T07:48:24.504Z,12.30
2023-05-01T07:49:24.505Z,7.40
2023-05-01T07:50:24.521Z,7.70
2023-05-01T07:51:24.480Z,7.80
2023-05-01T07:52:24.439Z,8.00
2023-05-01T07:53:24.463Z,8.20
2023-05-01T07:54:24.420Z,7.70
2023-05-01T07:55:24.441Z,8.10
2023-05-01T07:56:24.388Z,9.00
2023-05-01T07:57:24.426Z,8.40
2023-05-01T07:58:24.361Z,9.70
2023-05-01T07:59:24.360Z,10.20
2023-05-01T08:00:24.397Z,10.10
2023-05-01T08:01:24.407Z,10.70
2023-05-01T08:02:24.411Z,8.10
2023-05-01T08:03:24.548Z,14.70
2023-05-01T08:04:24.468Z,7.60
2023-05-01T08:05:24.282Z,9.30
2023-05-01T08:06:24.296Z,7.50
2023-05-01T08:07:24.231Z,18.90
2023-05-01T08:08:24.240Z,13.10
2023-05-01T08:09:24.225Z,12.50
2023-05-01T08:10:24.227Z,9.90
2023-05-01T08:11:24.193Z,7.80
2023-05-01T08:12:24.196Z,8.50
2023-05-01T08:13:24.208Z,13.90
2023-05-01T08:14:24.156Z,7.40
2023-05-01T08:15:24.148Z,6.90
2023-05-01T08:16:24.168Z,7.30
2023-05-01T08:17:24.152Z,6.80
2023-05-01T08:18:24.099Z,7.40
2023-05-01T08:19:24.087Z,7.80
2023-05-01T08:20:24.100Z,7.00
2023-05-01T08:21:24.111Z,10.80
2023-05-01T08:22:24.079Z,15.80
2023-05-01T08:23:24.020Z,9.80
2023-05-01T08:24:24.016Z,13.40
2023-05-01T08:25:23.998Z,8.30
2023-05-01T08:26:24.031Z,12.90
2023-05-01T08:27:24.023Z,13.00
2023-05-01T08:28:23.962Z,24.90
2023-05-01T08:29:23.961Z,18.10
2023-05-01T08:30:23.957Z,9.20
2023-05-01T08:31:23.982Z,6.90
2023-05-01T08:32:23.941Z,7.30
2023-05-01T08:33:23.934Z,9.40
2023-05-01T08:34:23.904Z,9.10
2023-05-01T08:35:23.863Z,8.00
2023-05-01T08:36:23.890Z,9.00
2023-05-01T08:37:23.869Z,6.30
2023-05-01T08:38:23.852Z,6.40
2023-05-01T08:39:23.808Z,6.80
2023-05-01T08:40:23.801Z,8.40
2023-05-01T08:41:23.823Z,9.80
2023-05-01T08:42:23.804Z,14.00
2023-05-01T08:43:23.752Z,8.30
2023-05-01T08:44:23.770Z,10.60
2023-05-01T08:45:23.770Z,14.80
2023-05-01T08:46:23.724Z,26.10
2023-05-01T08:47:23.770Z,9.40
2023-05-01T08:48:23.695Z,6.90
2023-05-01T08:49:23.694Z,7.40
2023-05-01T08:50:23.650Z,7.70
2023-05-01T08:51:23.644Z,6.00
2023-05-01T08:52:23.631Z,6.50
2023-05-01T08:53:23.621Z,11.90
2023-05-01T08:54:23.632Z,12.40
2023-05-01T08:55:23.588Z,14.90
2023-05-01T08:56:23.583Z,11.30
2023-05-01T08:57:23.546Z,8.90
2023-05-01T08:58:23.543Z,8.60
2023-05-01T08:59:23.522Z,9.50
2023-05-01T09:00:23.585Z,8.00
2023-05-01T09:01:23.609Z,8.90
2023-05-01T09:02:23.501Z,7.80
2023-05-01T09:03:23.678Z,6.30
2023-05-01T09:04:23.551Z,10.90
2023-05-01T09:05:23.476Z,8.50
2023-05-01T09:06:23.534Z,10.00
2023-05-01T09:07:23.417Z,17.90
2023-05-01T09:08:23.416Z,11.40
2023-05-01T09:09:23.398Z,10.10
2023-05-01T09:10:23.423Z,6.20
2023-05-01T09:11:23.369Z,6.80
2023-05-01T09:12:23.386Z,8.20
2023-05-01T09:13:23.342Z,7.20
2023-05-01T09:14:23.338Z,7.90
2023-05-01T09:15:23.362Z,12.50
2023-05-01T09:16:23.377Z,6.70
2023-05-01T09:17:23.359Z,6.70
2023-05-01T09:18:23.288Z,6.30
2023-05-01T09:19:23.270Z,8.00
2023-05-01T09:20:23.253Z,7.00
2023-05-01T09:21:23.328Z,7.70
2023-05-01T09:22:23.228Z,7.50
2023-05-01T09:23:23.201Z,8.00
2023-05-01T09:24:23.218Z,7.60
2023-05-01T09:25:23.180Z,9.50
2023-05-01T09:26:23.163Z,6.70
2023-05-01T09:27:23.153Z,8.50
2023-05-01T09:28:23.130Z,9.90
2023-05-01T09:29:23.161Z,7.00
2023-05-01T09:30:23.111Z,8.80
2023-05-01T09:31:23.195Z,8.20
2023-05-01T09:32:23.142Z,8.80
2023-05-01T09:33:23.145Z,7.30
2023-05-01T09:34:23.056Z,9.60
2023-05-01T09:35:23.058Z,8.10
2023-05-01T09:36:23.030Z,8.60
2023-05-01T09:37:23.025Z,8.90
2023-05-01T09:38:23.031Z,7.50
2023-05-01T09:39:23.000Z,7.70
2023-05-01T09:40:23.010Z,6.30
2023-05-01T09:41:22.956Z,6.40
2023-05-01T09:42:22.952Z,7.00
2023-05-01T09:43:22.941Z,6.40
2023-05-01T09:44:22.960Z,7.00
2023-05-01T09:45:22.909Z,5.80
2023-05-01T09:46:22.959Z,6.50
2023-05-01T09:47:23.083Z,7.10
2023-05-01T09:48:22.875Z,7.30
2023-05-01T09:49:22.890Z,6.40
2023-05-01T09:50:22.825Z,8.20
2023-05-01T09:51:22.867Z,7.30
2023-05-01T09:52:22.823Z,6.40
2023-05-01T09:53:22.804Z,5.80
2023-05-01T09:54:22.798Z,7.40
2023-05-01T09:55:24.830Z,8.50
2023-05-01T09:56:22.757Z,7.60
2023-05-01T09:57:22.761Z,5.80
2023-05-01T09:58:22.734Z,6.10
2023-05-01T09:59:22.740Z,6.90
2023-05-01T10:00:22.779Z,7.50
2023-05-01T10:01:22.722Z,6.80
2023-05-01T10:02:22.802Z,5.80
2023-05-01T10:03:22.819Z,5.70
2023-05-01T10:04:22.674Z,6.40
2023-05-01T10:05:22.657Z,10.40
2023-05-01T10:06:22.676Z,7.60
2023-05-01T10:07:22.618Z,7.30
2023-05-01T10:08:22.620Z,7.10
2023-05-01T10:09:22.626Z,7.30
2023-05-01T10:10:22.586Z,8.30
2023-05-01T10:11:22.565Z,6.10
2023-05-01T10:12:22.587Z,5.70
2023-05-01T10:13:22.537Z,5.50
2023-05-01T10:14:22.506Z,5.80
2023-05-01T10:15:26.288Z,6.00
2023-05-01T10:16:22.539Z,5.40
2023-05-01T10:17:22.688Z,5.30
2023-05-01T10:18:22.576Z,5.50
2023-05-01T10:19:22.467Z,5.30
2023-05-01T10:20:22.467Z,5.80
2023-05-01T10:21:22.433Z,5.50
2023-05-01T10:22:22.418Z,6.10
2023-05-01T10:23:22.416Z,5.70
2023-05-01T10:24:22.373Z,5.70
2023-05-01T10:25:22.382Z,5.80
2023-05-01T10:26:22.386Z,5.30
2023-05-01T10:27:22.394Z,5.60
2023-05-01T10:28:22.327Z,6.20
2023-05-01T10:29:22.338Z,7.00
2023-05-01T10:30:22.307Z,7.00
2023-05-01T10:31:22.390Z,5.50
2023-05-01T10:32:22.286Z,5.50
2023-05-01T10:33:22.404Z,5.60
2023-05-01T10:34:22.253Z,5.60
2023-05-01T10:35:22.282Z,5.30
2023-05-01T10:36:22.247Z,5.50
2023-05-01T10:37:22.216Z,5.60
2023-05-01T10:38:22.190Z,6.70
2023-05-01T10:39:22.183Z,5.20
2023-05-01T10:40:22.164Z,5.00
2023-05-01T10:41:22.154Z,5.30
2023-05-01T10:42:22.126Z,5.80
2023-05-01T10:43:22.108Z,5.20
2023-05-01T10:44:22.116Z,5.40
2023-05-01T10:45:22.090Z,6.40
2023-05-01T10:46:22.156Z,12.30
2023-05-01T10:47:22.070Z,6.20
2023-05-01T10:48:22.042Z,5.30
2023-05-01T10:49:22.071Z,8.00
2023-05-01T10:50:22.027Z,4.60
2023-05-01T10:51:24.390Z,5.90
2023-05-01T10:52:22.006Z,4.30
2023-05-01T10:53:21.977Z,4.30
2023-05-01T10:54:21.974Z,4.60
2023-05-01T10:55:21.980Z,4.10
2023-05-01T10:56:21.971Z,4.10
2023-05-01T10:57:22.783Z,4.10
2023-05-01T10:58:21.916Z,4.40
2023-05-01T10:59:21.889Z,4.10
2023-05-01T11:14:12.858Z,5.10
2023-05-01T11:15:06.896Z,5.10
2023-05-01T11:16:06.974Z,4.80
2023-05-01T11:17:06.850Z,5.20
2023-05-01T11:18:06.903Z,4.60
2023-05-01T11:19:06.825Z,4.90
2023-05-01T11:20:11.954Z,5.80
2023-05-01T11:21:06.772Z,4.80
2023-05-01T11:22:06.772Z,4.90
2023-05-01T11:23:06.813Z,4.70
2023-05-01T11:24:06.774Z,4.60
2023-05-01T11:25:06.838Z,4.90
2023-05-01T11:26:06.743Z,4.90
2023-05-01T11:27:06.711Z,8.00
2023-05-01T11:28:06.914Z,5.60
2023-05-01T11:29:06.694Z,7.30
2023-05-01T11:30:06.686Z,5.90
2023-05-01T11:31:06.692Z,5.60
2023-05-01T11:32:06.750Z,5.50
2023-05-01T11:33:09.147Z,6.70
2023-05-01T11:34:06.622Z,5.40
2023-05-01T11:35:06.595Z,5.50
2023-05-01T11:36:06.596Z,5.60
2023-05-01T11:37:06.598Z,5.10
2023-05-01T11:38:06.557Z,5.90
2023-05-01T11:39:06.549Z,6.30
2023-05-01T11:40:06.528Z,5.60
2023-05-01T11:41:06.648Z,5.90
2023-05-01T11:42:06.546Z,5.20
2023-05-01T11:43:06.511Z,6.20
2023-05-01T11:44:06.491Z,5.50
2023-05-01T11:45:06.467Z,5.50
2023-05-01T11:46:06.504Z,5.60
2023-05-01T11:47:06.484Z,6.10
2023-05-01T11:48:06.487Z,5.40
2023-05-01T11:49:06.419Z,5.40
2023-05-01T11:50:06.411Z,5.80
2023-05-01T11:51:06.380Z,7.00
2023-05-01T11:52:06.377Z,10.70
2023-05-01T11:53:06.406Z,8.60
2023-05-01T11:54:06.347Z,5.60
2023-05-01T11:55:06.340Z,5.40
2023-05-01T11:56:10.858Z,5.80
2023-05-01T11:57:06.334Z,5.30
2023-05-01T11:58:06.301Z,5.80
2023-05-01T11:59:06.285Z,5.30
2023-05-01T12:00:06.260Z,10.00
2023-05-01T12:01:06.292Z,6.00
2023-05-01T12:02:06.269Z,7.10
2023-05-01T12:03:06.636Z,7.90
2023-05-01T12:04:06.328Z,9.60
2023-05-01T12:05:06.242Z,11.50
2023-05-01T12:06:06.216Z,5.80
2023-05-01T12:07:06.212Z,5.50
2023-05-01T12:08:06.180Z,5.10
2023-05-01T12:09:06.147Z,5.00
2023-05-01T12:10:06.151Z,6.30
2023-05-01T12:11:06.131Z,5.00
2023-05-01T12:12:06.153Z,5.30
2023-05-01T12:13:06.090Z,5.90
2023-05-01T12:14:06.076Z,6.50
2023-05-01T12:15:06.069Z,5.20
2023-05-01T12:16:06.062Z,4.90
2023-05-01T12:17:06.128Z,5.00
2023-05-01T12:18:06.121Z,5.10
2023-05-01T12:19:06.041Z,4.80
2023-05-01T12:20:06.029Z,5.20
2023-05-01T12:21:05.981Z,5.10
2023-05-01T12:22:05.998Z,5.20
2023-05-01T12:23:05.992Z,5.80
2023-05-01T12:24:05.953Z,5.20
2023-05-01T12:25:05.962Z,5.00
2023-05-01T12:26:05.948Z,5.30
2023-05-01T12:27:05.945Z,6.30
2023-05-01T12:28:05.913Z,5.20
2023-05-01T12:29:06.036Z,4.90
2023-05-01T12:30:05.871Z,5.00
2023-05-01T12:31:05.929Z,4.70
2023-05-01T12:32:05.865Z,4.90
2023-05-01T12:33:05.852Z,4.90
2023-05-01T12:34:05.825Z,4.80
2023-05-01T12:35:05.802Z,5.70
2023-05-01T12:36:05.827Z,6.70
2023-05-01T12:37:05.776Z,16.70
2023-05-01T12:38:05.778Z,11.30
2023-05-01T12:39:05.761Z,11.30
2023-05-01T12:40:05.785Z,16.10
2023-05-01T12:41:05.729Z,6.30
2023-05-01T12:42:05.749Z,4.90
2023-05-01T12:43:05.699Z,4.70
2023-05-01T12:44:05.700Z,4.50
2023-05-01T12:45:05.703Z,4.70
2023-05-01T12:46:05.833Z,6.60
2023-05-01T12:47:05.658Z,6.40
2023-05-01T12:48:05.716Z,5.10
2023-05-01T12:49:05.654Z,6.00
2023-05-01T12:50:05.607Z,12.10
2023-05-01T12:51:05.595Z,13.40
2023-05-01T12:52:05.604Z,7.10
2023-05-01T12:53:05.604Z,5.50
2023-05-01T12:54:05.575Z,5.10
2023-05-01T12:55:05.646Z,5.90
2023-05-01T12:56:05.530Z,5.20
2023-05-01T12:57:05.564Z,5.10
2023-05-01T12:58:05.527Z,4.70
2023-05-01T12:59:05.514Z,4.90
2023-05-01T13:00:05.497Z,5.40
2023-05-01T13:01:05.453Z,5.20
2023-05-01T13:02:05.513Z,5.80
2023-05-01T13:03:05.601Z,5.70
2023-05-01T13:04:05.483Z,5.80
2023-05-01T13:05:05.404Z,6.50
2023-05-01T13:06:05.457Z,6.00
2023-05-01T13:07:05.374Z,8.00
2023-05-01T13:08:05.386Z,7.90
2023-05-01T13:09:05.368Z,5.30
2023-05-01T13:10:05.334Z,4.90
2023-05-01T13:11:05.355Z,5.60
2023-05-01T13:12:05.321Z,5.40
2023-05-01T13:13:05.342Z,5.40
2023-05-01T13:14:05.282Z,5.70
2023-05-01T13:15:05.277Z,5.50
2023-05-01T13:16:05.339Z,5.60
2023-05-01T13:17:06.701Z,7.10